Time;durP1;ratioP1;P1;durP2;ratioP2;P2;SDS_P1;SDS_P2;PMS_P1;PMS_P2;Temp;Humidity;BMP_temperature;BMP_pressure;BME280_temperature;BME280_humidity;BME280_pressure;Samples;Min_cycle;Max_cycle;Signal;HPM_P1;HPM_P2
2022/03/11 00:01:04;;;;;;;15.18;7.53;;;;;;;-1.82;48.76;102020.63;5019444;28;20104;-66
2022/03/11 00:03:30;;;;;;;14.25;7.18;;;;;;;-1.80;48.90;102021.50;5025750;28;20120;-67
2022/03/11 00:05:55;;;;;;;16.40;8.60;;;;;;;-1.85;48.88;102025.91;5024009;28;20155;-67
2022/03/11 00:08:21;;;;;;;15.50;7.90;;;;;;;-1.86;48.81;102022.44;5021594;28;20069;-66
2022/03/11 00:10:47;;;;;;;13.27;7.05;;;;;;;-1.85;48.90;102033.78;5022862;28;20033;-67
2022/03/11 00:13:12;;;;;;;12.95;7.22;;;;;;;-1.88;49.03;102018.94;5026368;28;20038;-67
2022/03/11 00:15:38;;;;;;;13.60;7.93;;;;;;;-2.01;48.88;101996.28;5026782;28;20033;-66
2022/03/11 00:18:04;;;;;;;15.63;7.53;;;;;;;-1.92;49.06;102013.72;5028971;28;20032;-66
2022/03/11 00:20:31;;;;;;;11.90;6.95;;;;;;;-1.93;49.14;102012.00;5026719;28;20124;-67
2022/03/11 00:22:57;;;;;;;11.35;6.60;;;;;;;-1.98;48.80;102003.25;5027807;28;20024;-66
2022/03/11 00:25:23;;;;;;;14.18;7.15;;;;;;;-2.09;49.31;101995.50;5026195;28;20040;-66
2022/03/11 00:27:50;;;;;;;16.00;8.15;;;;;;;-2.03;49.54;102002.44;5029852;28;20029;-67
2022/03/11 00:30:16;;;;;;;13.05;8.27;;;;;;;-2.06;49.25;101997.22;5035449;28;20079;-69
2022/03/11 00:32:42;;;;;;;16.08;8.07;;;;;;;-2.12;49.19;101994.66;5038761;28;20112;-70
2022/03/11 00:35:09;;;;;;;13.35;7.88;;;;;;;-2.15;49.42;101992.94;5039019;28;20110;-69
2022/03/11 00:37:36;;;;;;;15.57;8.70;;;;;;;-2.17;49.25;101999.09;5039626;28;20044;-69
2022/03/11 00:40:01;;;;;;;13.50;7.75;;;;;;;-2.20;49.47;102002.59;5042123;28;20029;-67
2022/03/11 00:42:27;;;;;;;12.75;7.32;;;;;;;-2.13;49.24;102017.41;5031748;28;20100;-67
2022/03/11 00:44:53;;;;;;;14.40;8.32;;;;;;;-2.20;49.31;102007.84;5023774;28;20048;-67
2022/03/11 00:47:18;;;;;;;12.73;7.00;;;;;;;-2.18;49.52;102019.25;5024175;28;20037;-67
2022/03/11 00:49:44;;;;;;;13.52;7.63;;;;;;;-2.14;49.31;102027.94;5024482;28;20136;-66
2022/03/11 00:52:10;;;;;;;13.32;7.38;;;;;;;-2.16;49.69;102020.06;5030816;28;20048;-67
2022/03/11 00:54:36;;;;;;;14.35;6.90;;;;;;;-2.17;49.61;102028.84;5028001;28;20037;-66
2022/03/11 00:57:01;;;;;;;13.98;7.88;;;;;;;-2.17;49.35;102028.00;5027764;28;20033;-66
2022/03/11 00:59:27;;;;;;;11.95;7.45;;;;;;;-2.22;49.81;102006.13;5022551;28;20032;-67
2022/03/11 01:01:52;;;;;;;12.80;7.40;;;;;;;-2.20;49.18;102017.50;5023940;28;20029;-66
2022/03/11 01:04:18;;;;;;;13.07;7.30;;;;;;;-2.24;49.35;102016.66;5030654;28;20100;-66
2022/03/11 01:06:43;;;;;;;13.95;8.07;;;;;;;-2.33;49.76;102004.47;5026546;28;20025;-67
2022/03/11 01:09:09;;;;;;;13.18;6.88;;;;;;;-2.30;49.66;102011.44;5021943;28;20611;-67
2022/03/11 01:11:34;;;;;;;16.48;8.38;;;;;;;-2.29;50.08;102017.59;5023922;28;21692;-67
2022/03/11 01:14:00;;;;;;;15.27;7.82;;;;;;;-2.30;49.99;102013.22;5022715;28;20025;-67
2022/03/11 01:16:26;;;;;;;14.50;8.05;;;;;;;-2.34;49.79;102020.25;5021327;28;20044;-67
2022/03/11 01:18:51;;;;;;;17.58;8.40;;;;;;;-2.40;49.78;102013.28;5024154;28;20036;-67
2022/03/11 01:21:17;;;;;;;12.88;7.45;;;;;;;-2.42;49.70;102017.69;5021949;28;20067;-66
2022/03/11 01:23:43;;;;;;;19.73;8.18;;;;;;;-2.43;49.71;102015.94;5021737;28;20486;-66
2022/03/11 01:26:10;;;;;;;15.02;7.22;;;;;;;-2.46;49.98;102015.97;5023209;28;20644;-67
2022/03/11 01:28:36;;;;;;;12.63;7.18;;;;;;;-2.50;50.50;102014.25;5024147;28;20029;-66
2022/03/11 01:31:02;;;;;;;16.40;7.70;;;;;;;-2.57;50.64;102004.69;5023264;28;20044;-66
2022/03/11 01:33:27;;;;;;;13.98;7.88;;;;;;;-2.54;50.41;102003.78;5023800;28;20025;-66
2022/03/11 01:35:53;;;;;;;13.70;6.85;;;;;;;-2.56;51.01;102013.41;5024331;28;20339;-66
2022/03/11 01:38:18;;;;;;;12.82;7.38;;;;;;;-2.59;50.57;102008.19;5024464;28;20068;-66
2022/03/11 01:40:44;;;;;;;13.27;7.70;;;;;;;-2.63;50.44;102001.22;5022764;28;20521;-66
2022/03/11 01:43:17;;;;;;;15.80;7.93;;;;;;;-2.58;50.45;102007.31;5024425;28;20047;-66
2022/03/11 01:45:43;;;;;;;12.27;7.73;;;;;;;-2.61;50.83;102005.56;5028552;28;20033;-66
2022/03/11 01:48:10;;;;;;;15.38;8.20;;;;;;;-2.62;50.63;102003.84;5027393;28;20074;-66
2022/03/11 01:50:40;;;;;;;13.63;7.90;;;;;;;-2.64;50.90;101997.72;5019561;28;20095;-66
2022/03/11 01:53:08;;;;;;;14.10;7.53;;;;;;;-2.68;50.66;102010.88;5024608;28;20026;-66
2022/03/11 01:55:34;;;;;;;15.18;7.65;;;;;;;-2.74;50.95;102003.91;5021620;28;20034;-67
2022/03/11 01:57:59;;;;;;;13.95;7.15;;;;;;;-2.86;50.76;101998.78;5036897;28;20037;-66
2022/03/11 02:00:25;;;;;;;14.65;8.00;;;;;;;-2.83;51.24;102019.72;5022570;28;20025;-66
2022/03/11 02:02:50;;;;;;;16.58;8.63;;;;;;;-2.95;50.66;102001.44;5023594;28;20055;-66
2022/03/11 02:05:17;;;;;;;13.40;7.38;;;;;;;-2.94;50.91;102004.91;5026041;28;20082;-66
2022/03/11 02:07:43;;;;;;;12.82;7.20;;;;;;;-2.97;51.62;102003.19;5024433;28;20037;-66
2022/03/11 02:10:09;;;;;;;15.40;7.65;;;;;;;-3.00;51.41;102002.38;5024333;28;20032;-66
2022/03/11 02:12:35;;;;;;;14.60;7.97;;;;;;;-3.08;51.43;101994.53;5021045;28;20394;-66
2022/03/11 02:15:04;;;;;;;16.17;7.85;;;;;;;-3.05;51.97;102002.38;5036619;28;20120;-66
2022/03/11 02:17:29;;;;;;;15.25;8.50;;;;;;;-3.10;51.52;101995.41;5022228;28;20044;-66
2022/03/11 02:19:55;;;;;;;12.80;7.18;;;;;;;-3.08;52.03;102001.53;5020966;28;20030;-66
2022/03/11 02:22:23;;;;;;;13.63;7.95;;;;;;;-3.13;52.05;101988.41;5022076;28;20839;-66
2022/03/11 02:24:48;;;;;;;15.55;8.27;;;;;;;-3.15;51.64;101995.44;5044186;28;20052;-66
2022/03/11 02:27:14;;;;;;;16.17;8.38;;;;;;;-3.12;51.93;102010.28;5022080;28;20037;-66
2022/03/11 02:29:39;;;;;;;17.10;7.90;;;;;;;-3.17;52.33;102002.44;5020986;28;20024;-66
2022/03/11 02:32:05;;;;;;;12.13;7.35;;;;;;;-3.13;52.46;102001.53;5027747;28;20025;-66
2022/03/11 02:34:31;;;;;;;17.17;7.80;;;;;;;-3.18;52.22;102003.34;5020879;28;20124;-66
2022/03/11 02:36:57;;;;;;;19.17;8.45;;;;;;;-3.18;52.31;102000.72;5022091;28;20090;-66
2022/03/11 02:39:22;;;;;;;17.23;8.00;;;;;;;-3.18;52.39;102000.72;5026804;28;20041;-66
2022/03/11 02:41:49;;;;;;;16.90;8.00;;;;;;;-3.14;52.06;102007.69;5021367;28;20033;-66
2022/03/11 02:44:15;;;;;;;14.68;7.88;;;;;;;-3.13;52.10;102013.81;5020311;28;20037;-66
2022/03/11 02:46:41;;;;;;;15.82;7.78;;;;;;;-3.17;51.88;102004.19;5018722;28;20029;-66
2022/03/11 02:49:06;;;;;;;13.93;7.82;;;;;;;-3.16;52.70;102012.03;5025009;28;20044;-66
2022/03/11 02:51:32;;;;;;;17.63;8.00;;;;;;;-3.26;52.26;101992.00;5022593;28;20041;-66
2022/03/11 02:53:57;;;;;;;11.95;6.85;;;;;;;-3.19;52.07;102006.81;5022562;28;20033;-66
2022/03/11 02:56:23;;;;;;;14.60;7.88;;;;;;;-3.18;52.33;102012.94;5024983;28;20582;-66
2022/03/11 02:58:49;;;;;;;14.95;7.95;;;;;;;-3.23;52.11;102001.59;5027128;28;20060;-66
2022/03/11 03:01:14;;;;;;;17.45;8.10;;;;;;;-3.25;52.33;102003.38;5011896;28;20087;-66
2022/03/11 03:03:40;;;;;;;16.83;7.47;;;;;;;-3.22;51.73;102019.94;5021957;28;20109;-66
2022/03/11 03:06:06;;;;;;;12.30;7.10;;;;;;;-3.25;52.36;102014.75;5024278;28;20041;-66
2022/03/11 03:08:32;;;;;;;13.80;7.28;;;;;;;-3.32;52.10;102002.50;5023403;28;20457;-66
2022/03/11 03:10:57;;;;;;;13.95;7.18;;;;;;;-3.28;52.18;102014.75;5025206;28;20425;-66
2022/03/11 03:13:23;;;;;;;13.50;7.60;;;;;;;-3.27;51.59;102026.97;5021899;28;20043;-66
2022/03/11 03:15:49;;;;;;;12.57;7.03;;;;;;;-3.31;51.88;102014.78;5027598;28;20033;-66
2022/03/11 03:18:15;;;;;;;15.57;8.05;;;;;;;-3.29;52.57;102018.25;5026478;28;20039;-66
2022/03/11 03:20:41;;;;;;;15.27;7.10;;;;;;;-3.34;51.94;102012.16;5025810;28;20540;-66
2022/03/11 03:23:07;;;;;;;12.85;7.03;;;;;;;-3.45;52.28;101985.09;5021972;28;20083;-66
2022/03/11 03:25:33;;;;;;;15.10;7.72;;;;;;;-3.34;51.93;102013.91;5031551;28;20032;-66
2022/03/11 03:27:58;;;;;;;16.10;7.85;;;;;;;-3.34;52.10;102019.13;5023604;28;20048;-66
2022/03/11 03:30:24;;;;;;;14.10;7.45;;;;;;;-3.40;52.42;102011.28;5023620;28;20095;-67
2022/03/11 03:32:49;;;;;;;15.70;7.60;;;;;;;-3.42;52.03;102007.81;5023537;28;20533;-66
2022/03/11 03:35:14;;;;;;;17.35;7.85;;;;;;;-3.43;52.31;102009.56;5024618;28;20025;-65
2022/03/11 03:37:40;;;;;;;16.08;7.35;;;;;;;-3.48;52.54;102016.56;5025497;28;20112;-66
2022/03/11 03:40:07;;;;;;;13.80;7.05;;;;;;;-3.58;52.48;102009.63;5024852;28;20064;-66
2022/03/11 03:42:32;;;;;;;16.05;7.97;;;;;;;-3.57;52.73;102015.75;5025207;28;20105;-66
2022/03/11 03:44:58;;;;;;;14.02;7.10;;;;;;;-3.61;52.56;102014.88;5026813;28;20202;-66
2022/03/11 03:47:23;;;;;;;15.82;7.97;;;;;;;-3.61;52.70;102024.50;5024303;28;20025;-65
2022/03/11 03:49:49;;;;;;;13.70;7.18;;;;;;;-3.63;52.52;102021.88;5031132;28;20141;-66
2022/03/11 03:52:14;;;;;;;15.68;8.20;;;;;;;-3.63;52.99;102021.88;5029544;28;20033;-65
2022/03/11 03:54:40;;;;;;;18.23;7.32;;;;;;;-3.66;52.69;102026.25;5021299;28;20036;-65
2022/03/11 03:57:06;;;;;;;15.38;7.20;;;;;;;-3.70;53.01;102027.13;5029786;28;20130;-66
2022/03/11 03:59:31;;;;;;;15.10;7.18;;;;;;;-3.70;52.52;102035.88;5022708;28;20029;-66
2022/03/11 04:01:57;;;;;;;15.68;8.23;;;;;;;-3.77;52.57;102022.81;5025369;28;20057;-65
2022/03/11 04:04:22;;;;;;;15.70;7.68;;;;;;;-3.87;52.64;102011.44;5026079;28;20075;-67
2022/03/11 04:06:48;;;;;;;17.45;7.88;;;;;;;-3.87;53.26;102019.31;5023069;28;20477;-66
2022/03/11 04:09:14;;;;;;;14.07;7.03;;;;;;;-3.87;52.61;102026.31;5032963;28;20040;-66
2022/03/11 04:11:42;;;;;;;12.77;7.22;;;;;;;-3.91;52.95;102027.19;5032414;28;20048;-66
2022/03/11 04:14:08;;;;;;;14.10;7.10;;;;;;;-3.92;53.16;102022.81;5020976;28;20367;-67
2022/03/11 04:16:34;;;;;;;15.27;7.07;;;;;;;-3.94;53.69;102022.81;5025542;28;20037;-66
2022/03/11 04:18:59;;;;;;;13.20;7.18;;;;;;;-3.94;53.30;102022.81;5026785;28;20648;-65
2022/03/11 04:21:25;;;;;;;14.05;7.85;;;;;;;-3.97;53.26;102028.06;5021201;28;20866;-67
2022/03/11 04:23:51;;;;;;;16.05;7.28;;;;;;;-3.96;53.40;102031.56;5024434;28;20116;-67
2022/03/11 04:26:17;;;;;;;16.45;7.90;;;;;;;-3.97;53.55;102046.41;5029332;28;20086;-66
2022/03/11 04:28:43;;;;;;;21.33;7.63;;;;;;;-3.93;53.44;102055.16;5022777;28;20029;-66
2022/03/11 04:31:10;;;;;;;16.42;6.85;;;;;;;-3.98;53.57;102051.66;5020223;28;20056;-66
2022/03/11 04:33:37;;;;;;;14.40;7.25;;;;;;;-4.06;53.18;102029.84;5029465;28;20500;-69
2022/03/11 04:36:04;;;;;;;14.98;7.55;;;;;;;-4.06;53.62;102041.19;5036402;28;20045;-69
2022/03/11 04:38:30;;;;;;;17.92;7.78;;;;;;;-4.08;53.92;102042.94;5031617;28;20025;-69
2022/03/11 04:40:56;;;;;;;25.90;7.30;;;;;;;-4.13;53.71;102028.09;5029779;28;20061;-69
2022/03/11 04:43:21;;;;;;;21.00;8.30;;;;;;;-4.11;53.33;102039.44;5033068;28;20079;-69
2022/03/11 04:45:47;;;;;;;14.93;7.15;;;;;;;-4.09;53.35;102049.06;5030502;28;20033;-70
2022/03/11 04:48:12;;;;;;;15.85;7.13;;;;;;;-4.12;53.33;102048.19;5032170;28;20037;-69
2022/03/11 04:50:39;;;;;;;21.85;8.15;;;;;;;-4.16;53.71;102043.81;5034621;28;20053;-69
2022/03/11 04:53:05;;;;;;;14.80;7.93;;;;;;;-4.20;53.42;102040.31;5028848;28;20044;-69
2022/03/11 04:55:30;;;;;;;16.00;7.85;;;;;;;-4.26;53.41;102037.69;5032599;28;20024;-69
2022/03/11 04:57:56;;;;;;;16.70;8.23;;;;;;;-4.25;54.41;102046.44;5033462;28;20091;-69
2022/03/11 05:00:22;;;;;;;16.27;7.75;;;;;;;-4.27;53.79;102043.81;5030455;28;20037;-69
2022/03/11 05:02:48;;;;;;;16.95;8.88;;;;;;;-4.32;54.16;102040.31;5036296;28;20116;-69
2022/03/11 05:05:15;;;;;;;21.40;7.80;;;;;;;-4.32;54.22;102045.56;5038806;28;20108;-69
2022/03/11 05:07:41;;;;;;;15.30;8.52;;;;;;;-4.28;54.05;102055.19;5031690;28;20736;-69
2022/03/11 05:10:15;;;;;;;17.38;7.55;;;;;;;-4.30;53.54;102056.91;5035625;28;20025;-69
2022/03/11 05:12:41;;;;;;;15.13;7.65;;;;;;;-4.37;53.93;102038.56;5030968;28;20053;-69
2022/03/11 05:15:08;;;;;;;20.83;8.65;;;;;;;-4.28;54.55;102051.69;5028908;28;20057;-69
2022/03/11 05:17:34;;;;;;;18.45;8.60;;;;;;;-4.29;54.01;102050.78;5030893;28;20113;-69
2022/03/11 05:20:00;;;;;;;16.50;9.00;;;;;;;-4.24;54.24;102056.91;5030292;28;20025;-69
2022/03/11 05:22:25;;;;;;;21.63;8.63;;;;;;;-4.25;53.52;102062.16;5034990;28;20030;-69
2022/03/11 05:24:51;;;;;;;20.15;8.25;;;;;;;-4.28;53.72;102052.56;5033163;28;20509;-69
2022/03/11 05:27:17;;;;;;;19.52;8.00;;;;;;;-4.23;53.90;102065.66;5033056;28;20040;-69
2022/03/11 05:29:42;;;;;;;15.55;8.18;;;;;;;-4.24;53.77;102063.88;5035347;28;20033;-69
2022/03/11 05:32:09;;;;;;;15.05;8.82;;;;;;;-4.32;54.05;102048.16;5030885;28;20060;-69
2022/03/11 05:34:38;;;;;;;18.60;9.27;;;;;;;-4.36;54.14;102046.44;5031518;28;20036;-69
2022/03/11 05:37:05;;;;;;;23.27;8.55;;;;;;;-4.20;54.17;102071.75;5026479;28;20037;-69
2022/03/11 05:39:31;;;;;;;22.48;9.85;;;;;;;-4.23;54.04;102069.13;5035442;28;20082;-69
2022/03/11 05:41:57;;;;;;;15.98;8.38;;;;;;;-4.27;54.32;102064.78;5036820;28;20117;-69
2022/03/11 05:44:23;;;;;;;16.10;8.93;;;;;;;-4.18;54.58;102072.63;5037660;28;20026;-69
2022/03/11 05:46:48;;;;;;;15.45;7.88;;;;;;;-4.25;54.12;102062.16;5040160;28;20032;-69
2022/03/11 05:49:14;;;;;;;22.50;9.02;;;;;;;-4.13;54.30;102086.59;5035256;28;20023;-69
2022/03/11 05:51:39;;;;;;;19.98;8.43;;;;;;;-4.16;54.04;102073.50;5035275;28;20485;-69
2022/03/11 05:54:05;;;;;;;17.02;7.97;;;;;;;-4.15;54.47;102075.25;5040571;28;20021;-69
2022/03/11 05:56:31;;;;;;;16.50;8.25;;;;;;;-4.10;54.56;102089.22;5042122;28;20033;-69
2022/03/11 05:58:57;;;;;;;17.13;7.53;;;;;;;-4.11;54.12;102087.47;5031091;28;20406;-69
2022/03/11 06:01:23;;;;;;;19.20;8.43;;;;;;;-4.06;54.35;102088.38;5038273;28;20033;-69
2022/03/11 06:03:48;;;;;;;18.08;8.85;;;;;;;-4.04;53.72;102081.34;5035188;28;20464;-69
2022/03/11 06:06:15;;;;;;;18.98;8.45;;;;;;;-4.06;53.71;102077.88;5039161;28;20029;-69
2022/03/11 06:08:41;;;;;;;26.02;9.18;;;;;;;-3.96;53.43;102097.97;5036380;28;20796;-69
2022/03/11 06:11:08;;;;;;;22.98;9.15;;;;;;;-3.92;54.07;102099.69;5047361;28;20441;-69
2022/03/11 06:13:38;;;;;;;24.15;9.50;;;;;;;-3.90;53.59;102100.53;5031563;28;21657;-68
2022/03/11 06:16:04;;;;;;;19.83;8.65;;;;;;;-3.82;53.22;102109.28;5033082;28;20037;-69
2022/03/11 06:18:29;;;;;;;25.52;8.45;;;;;;;-3.73;52.69;102109.28;5038318;28;20041;-69
2022/03/11 06:20:56;;;;;;;20.98;7.78;;;;;;;-3.69;52.96;102116.28;5039134;28;20041;-69
2022/03/11 06:23:22;;;;;;;18.02;8.75;;;;;;;-3.71;52.64;102102.28;5039426;28;20013;-68
2022/03/11 06:25:48;;;;;;;23.40;7.85;;;;;;;-3.58;52.47;102108.38;5039134;28;20021;-68
2022/03/11 06:28:14;;;;;;;17.88;8.57;;;;;;;-3.48;52.41;102110.97;5042330;28;20040;-69
2022/03/11 06:30:39;;;;;;;15.50;7.85;;;;;;;-3.42;52.61;102110.97;5037100;28;20060;-68
2022/03/11 06:33:06;;;;;;;17.33;7.65;;;;;;;-3.36;52.33;102108.31;5031886;28;20022;-69
2022/03/11 06:35:32;;;;;;;18.88;7.93;;;;;;;-3.28;52.25;102116.19;5036718;28;20033;-68
2022/03/11 06:37:57;;;;;;;25.00;8.43;;;;;;;-3.16;51.73;102118.78;5043187;28;20029;-68
2022/03/11 06:40:23;;;;;;;18.70;7.65;;;;;;;-3.07;51.47;102123.97;5035254;28;20066;-69
2022/03/11 06:42:50;;;;;;;17.83;8.13;;;;;;;-2.97;50.55;102136.19;5038873;28;20034;-68
2022/03/11 06:45:17;;;;;;;18.95;8.00;;;;;;;-2.83;50.23;102129.97;5038719;28;20036;-69
2022/03/11 06:47:44;;;;;;;14.85;7.07;;;;;;;-2.73;50.45;102126.47;5042340;28;20037;-69
2022/03/11 06:50:10;;;;;;;18.25;7.47;;;;;;;-2.63;49.94;102120.28;5043415;28;20466;-68
2022/03/11 06:52:36;;;;;;;16.75;7.63;;;;;;;-2.50;49.75;102116.69;5040427;28;20104;-69
2022/03/11 06:55:02;;;;;;;14.75;6.80;;;;;;;-2.40;48.92;102139.38;5040410;28;20021;-69
2022/03/11 06:57:28;;;;;;;20.45;6.80;;;;;;;-2.33;48.79;102115.72;5041782;28;20025;-68
2022/03/11 06:59:54;;;;;;;16.05;7.13;;;;;;;-2.13;48.65;102124.31;5043933;28;20021;-68
2022/03/11 07:02:19;;;;;;;15.40;6.70;;;;;;;-2.01;47.70;102119.84;5041380;28;20033;-69
2022/03/11 07:04:45;;;;;;;16.60;6.18;;;;;;;-1.82;47.27;102136.31;5042937;28;20024;-69
2022/03/11 07:07:11;;;;;;;12.27;6.28;;;;;;;-1.72;47.47;102123.09;5043523;28;20086;-69
2022/03/11 07:09:37;;;;;;;16.40;7.30;;;;;;;-1.60;46.56;102115.09;5036456;28;20025;-69
2022/03/11 07:12:03;;;;;;;13.15;7.10;;;;;;;-1.35;45.85;102136.75;5050754;28;20508;-70
2022/03/11 07:14:35;;;;;;;15.70;6.60;;;;;;;-1.12;45.34;102130.38;5041310;28;20025;-69
2022/03/11 07:17:01;;;;;;;17.77;7.40;;;;;;;-1.01;45.13;102115.31;5046924;28;20036;-69
2022/03/11 07:19:29;;;;;;;13.55;7.72;;;;;;;-0.73;44.52;102124.59;5044011;28;20063;-69
2022/03/11 07:21:56;;;;;;;13.80;6.47;;;;;;;-0.48;44.31;102122.50;5038129;28;20021;-69
2022/03/11 07:24:21;;;;;;;15.90;6.93;;;;;;;-0.25;43.33;102115.97;5042243;28;20021;-69
2022/03/11 07:26:47;;;;;;;14.05;6.13;;;;;;;0.01;43.13;102118.25;5044367;28;20032;-69
2022/03/11 07:29:12;;;;;;;12.65;6.50;;;;;;;0.25;42.58;102112.53;5045855;28;20108;-70
2022/03/11 07:31:38;;;;;;;15.00;6.72;;;;;;;0.56;41.49;102113.75;5039965;28;20044;-70
2022/03/11 07:34:03;;;;;;;11.50;6.38;;;;;;;0.82;40.60;102113.25;5037635;28;20064;-69
2022/03/11 07:36:29;;;;;;;12.77;6.22;;;;;;;1.06;40.33;102110.13;5047899;28;20044;-69
2022/03/11 07:38:54;;;;;;;12.07;6.10;;;;;;;1.26;39.56;102116.72;5047474;28;20493;-69
2022/03/11 07:41:20;;;;;;;9.52;5.35;;;;;;;1.58;38.38;102103.66;5050946;28;20385;-69
2022/03/11 07:43:46;;;;;;;11.25;6.07;;;;;;;1.78;38.10;102119.09;5048540;28;20398;-69
2022/03/11 07:46:14;;;;;;;13.73;6.40;;;;;;;2.06;38.23;102118.38;5044179;28;20021;-70
2022/03/11 07:48:43;;;;;;;13.18;6.68;;;;;;;2.53;37.78;102113.66;5037672;28;20401;-70
2022/03/11 07:51:09;;;;;;;11.13;6.43;;;;;;;2.98;35.98;102115.06;5041143;28;20494;-70
2022/03/11 07:53:35;;;;;;;11.45;6.68;;;;;;;3.91;34.93;102112.22;5044331;28;20021;-70
2022/03/11 07:56:03;;;;;;;11.80;6.88;;;;;;;4.85;33.18;102113.41;5042901;28;20029;-69
2022/03/11 07:58:29;;;;;;;9.48;6.25;;;;;;;5.64;31.76;102106.81;5047704;28;20072;-70
2022/03/11 08:00:55;;;;;;;13.05;6.68;;;;;;;6.53;29.88;102103.16;5042234;28;20052;-70
2022/03/11 08:03:21;;;;;;;9.93;6.40;;;;;;;7.37;28.57;102104.66;5042936;28;20025;-69
2022/03/11 08:05:47;;;;;;;14.50;7.28;;;;;;;8.00;28.05;102098.06;5050737;28;20031;-70
2022/03/11 08:08:12;;;;;;;10.80;6.70;;;;;;;8.78;27.33;102099.44;5042306;28;20029;-69
2022/03/11 08:10:39;;;;;;;13.27;7.35;;;;;;;8.93;26.43;102086.09;5042732;28;20056;-69
2022/03/11 08:13:08;;;;;;;10.52;7.18;;;;;;;9.54;25.77;102099.69;5037140;28;20018;-69
2022/03/11 08:15:36;;;;;;;11.75;6.50;;;;;;;9.81;25.28;102082.09;5040752;28;20080;-69
2022/03/11 08:18:02;;;;;;;13.57;6.38;;;;;;;10.23;24.82;102098.44;5037900;28;20078;-68
2022/03/11 08:20:28;;;;;;;12.65;5.53;;;;;;;10.69;24.41;102084.03;5042360;28;20477;-68
2022/03/11 08:22:54;;;;;;;16.70;6.47;;;;;;;11.14;23.92;102077.66;5035901;28;20037;-69
2022/03/11 08:25:21;;;;;;;16.92;6.25;;;;;;;11.39;23.21;102076.00;5043874;28;20535;-69
2022/03/11 08:27:48;;;;;;;22.88;7.05;;;;;;;12.00;22.83;102066.72;5046201;28;20048;-69
2022/03/11 08:30:13;;;;;;;9.68;6.10;;;;;;;12.60;22.26;102073.34;5040745;28;20053;-69
2022/03/11 08:32:40;;;;;;;12.77;5.93;;;;;;;13.33;21.30;102084.31;5044680;28;20385;-68
2022/03/11 08:35:07;;;;;;;8.02;5.70;;;;;;;12.69;21.55;102081.66;5035790;28;20033;-69
2022/03/11 08:37:33;;;;;;;11.88;5.95;;;;;;;12.89;21.23;102081.16;5042266;28;20041;-68
2022/03/11 08:39:59;;;;;;;8.05;5.80;;;;;;;12.05;21.89;102078.03;5044987;28;20040;-69
2022/03/11 08:42:24;;;;;;;10.68;6.18;;;;;;;10.78;23.21;102077.22;5038958;28;20029;-69
2022/03/11 08:44:50;;;;;;;10.88;6.30;;;;;;;9.64;24.25;102078.66;5039852;28;20025;-69
2022/03/11 08:47:16;;;;;;;14.80;6.00;;;;;;;8.70;24.93;102098.94;5041272;28;20037;-69
2022/03/11 08:49:41;;;;;;;11.27;6.38;;;;;;;7.69;25.94;102093.34;5041815;28;20099;-69
2022/03/11 08:52:07;;;;;;;8.73;5.82;;;;;;;7.18;26.83;102086.88;5040875;28;20022;-69
2022/03/11 08:54:32;;;;;;;10.05;6.07;;;;;;;6.85;27.31;102090.16;5049395;28;20029;-69
2022/03/11 08:56:59;;;;;;;9.80;6.57;;;;;;;7.34;26.59;102082.56;5050672;28;20037;-69
2022/03/11 08:59:26;;;;;;;11.63;6.28;;;;;;;9.17;25.19;102076.78;5042699;28;20025;-69
2022/03/11 09:01:51;;;;;;;11.52;6.38;;;;;;;10.84;23.65;102069.66;5040790;28;20056;-68
2022/03/11 09:04:17;;;;;;;12.52;5.78;;;;;;;12.22;22.28;102067.03;5040516;28;20028;-69
2022/03/11 09:06:42;;;;;;;15.82;6.72;;;;;;;13.24;20.53;102049.94;5038870;28;20064;-70
2022/03/11 09:09:08;;;;;;;12.32;5.53;;;;;;;14.35;20.15;102042.56;5043529;28;20412;-70
2022/03/11 09:11:34;;;;;;;21.15;7.30;;;;;;;14.96;19.34;102007.97;5033134;28;20029;-70
2022/03/11 09:14:00;;;;;;;15.35;6.47;;;;;;;15.64;19.00;102038.44;5029896;28;20060;-66
2022/03/11 09:16:25;;;;;;;11.48;5.22;;;;;;;16.71;17.79;102028.47;5018187;28;20128;-66
2022/03/11 09:18:51;;;;;;;7.93;5.72;;;;;;;17.17;17.55;102032.47;5033245;28;20064;-66
2022/03/11 09:21:17;;;;;;;8.82;5.50;;;;;;;17.26;17.15;102028.94;5033515;28;20033;-66
2022/03/11 09:23:43;;;;;;;14.25;6.53;;;;;;;18.00;16.85;102025.75;5045258;28;20100;-66
2022/03/11 09:26:08;;;;;;;12.73;5.75;;;;;;;17.75;17.00;102033.56;5036542;28;20040;-66
2022/03/11 09:28:34;;;;;;;8.20;4.72;;;;;;;18.56;16.38;102016.91;5027771;28;20033;-66
2022/03/11 09:31:08;;;;;;;24.02;5.68;;;;;;;18.64;16.25;102011.63;5029713;28;20378;-66
2022/03/11 09:33:42;;;;;;;13.45;5.35;;;;;;;19.43;15.73;102008.41;5026297;28;20517;-66
2022/03/11 09:36:09;;;;;;;6.25;4.93;;;;;;;19.70;15.31;102008.41;5028164;28;20025;-65
2022/03/11 09:38:37;;;;;;;10.00;5.70;;;;;;;19.33;15.92;102007.59;5018143;28;20148;-66
2022/03/11 09:41:04;;;;;;;8.73;5.10;;;;;;;19.54;15.56;101994.59;5020532;28;20061;-66
2022/03/11 09:43:30;;;;;;;7.35;5.00;;;;;;;19.37;15.40;101993.53;5018569;28;20116;-65
2022/03/11 09:45:57;;;;;;;10.68;5.15;;;;;;;18.85;15.73;101987.81;5021283;28;20490;-66
2022/03/11 09:48:24;;;;;;;8.05;4.43;;;;;;;18.78;15.43;101998.44;5022985;28;20025;-66
2022/03/11 09:50:49;;;;;;;11.65;4.65;;;;;;;18.71;15.83;101988.28;5027657;28;20069;-66
2022/03/11 09:53:15;;;;;;;6.45;4.40;;;;;;;18.39;16.19;101999.50;5038031;28;20064;-66
2022/03/11 09:55:42;;;;;;;8.27;4.90;;;;;;;18.83;15.73;101987.13;5038966;28;20056;-66
2022/03/11 09:58:08;;;;;;;10.43;5.35;;;;;;;19.40;15.26;101987.78;5022539;28;20678;-66
2022/03/11 10:00:33;;;;;;;6.40;4.97;;;;;;;19.24;15.30;101981.25;5022451;28;20124;-66
2022/03/11 10:02:59;;;;;;;5.18;4.47;;;;;;;19.33;15.19;101981.25;5019636;28;20045;-66
2022/03/11 10:05:43;;;;;;;13.05;4.90;;;;;;;19.78;15.18;101978.53;5023604;28;20465;-66
2022/03/11 10:08:09;;;;;;;5.00;4.43;;;;;;;20.01;15.25;101979.78;5024939;28;20037;-65
2022/03/11 10:10:35;;;;;;;5.43;4.22;;;;;;;20.10;14.74;101976.16;5022784;28;20033;-66
2022/03/11 10:13:02;;;;;;;9.10;4.35;;;;;;;20.08;14.75;101972.72;5030628;28;20040;-66
2022/03/11 10:15:29;;;;;;;5.80;4.30;;;;;;;19.78;14.93;101968.50;5023647;28;20033;-66
2022/03/11 10:17:55;;;;;;;8.73;5.40;;;;;;;20.31;14.58;101964.97;5021558;28;20038;-66
2022/03/11 10:20:22;;;;;;;12.02;4.72;;;;;;;20.23;14.73;101979.38;5025032;28;20029;-66
2022/03/11 10:22:47;;;;;;;12.48;5.53;;;;;;;19.70;15.08;101981.19;5021768;28;20025;-66
2022/03/11 10:25:20;;;;;;;8.10;4.60;;;;;;;18.99;15.44;101982.78;5018824;28;20418;-66
2022/03/11 10:27:58;;;;;;;11.37;5.13;;;;;;;19.20;15.53;101979.81;5016598;28;20096;-66
2022/03/11 10:30:26;;;;;;;7.43;4.40;;;;;;;18.56;15.57;101978.88;5023637;28;20332;-66
2022/03/11 10:32:56;;;;;;;7.80;5.20;;;;;;;17.93;15.73;101989.31;5032484;28;20511;-66
2022/03/11 10:35:36;;;;;;;6.30;5.20;;;;;;;16.26;16.92;101983.63;5024622;28;22225;-65
2022/03/11 10:38:12;;;;;;;7.50;5.32;;;;;;;14.92;17.27;101981.28;5025330;28;20757;-66
2022/03/11 10:40:55;;;;;;;8.85;3.83;;;;;;;13.51;18.27;101995.84;5022175;28;20024;-66
2022/03/11 10:43:25;;;;;;;9.35;4.50;;;;;;;12.76;19.40;101982.47;5023228;28;20094;-66
2022/03/11 10:45:53;;;;;;;11.48;4.50;;;;;;;11.66;19.72;101987.41;5038006;28;20056;-66
2022/03/11 10:48:40;;;;;;;5.97;4.65;;;;;;;10.86;21.31;101992.59;5022798;28;20033;-66
2022/03/11 10:51:10;;;;;;;5.72;4.57;;;;;;;9.91;22.15;101976.09;5023637;28;20043;-66
2022/03/11 10:53:40;;;;;;;8.73;4.43;;;;;;;9.50;22.62;101990.13;5031695;28;20033;-66
2022/03/11 10:56:07;;;;;;;9.38;5.40;;;;;;;8.78;23.26;101982.56;5033411;28;20418;-66
2022/03/11 10:58:33;;;;;;;9.65;5.07;;;;;;;8.21;23.74;101971.38;5020067;28;20029;-65
2022/03/11 11:00:58;;;;;;;6.65;4.90;;;;;;;7.90;24.46;101977.41;5038279;28;20034;-66
2022/03/11 11:03:24;;;;;;;6.05;4.30;;;;;;;7.60;24.21;101980.75;5021806;28;20041;-66
2022/03/11 11:05:50;;;;;;;6.82;4.72;;;;;;;7.34;24.15;101974.03;5021534;28;20036;-66
2022/03/11 11:08:17;;;;;;;5.85;4.63;;;;;;;7.04;24.72;101964.81;5020316;28;20037;-66
2022/03/11 11:10:45;;;;;;;12.25;5.63;;;;;;;6.93;25.49;101967.97;5024902;28;20026;-66
2022/03/11 11:13:11;;;;;;;7.88;4.50;;;;;;;6.67;25.48;101960.31;5024413;28;20029;-66
2022/03/11 11:15:41;;;;;;;9.25;4.38;;;;;;;6.50;26.11;101981.53;5016268;28;20022;-66